If you wish to contribute or participate in the discussions about articles you are invited to join SKYbrary as a registered user

 Actions

Changchun Longjia International

From SKYbrary Wiki

ZYCC
Airport
ICAO: ZYCC
Summary
Name Changchun Longjia International
Region Asia and Pacific
Territory China CN.gif
Location Changchun, Jilin
Serving
Coordinates 43° 59' 46.00" N, 125° 41' 7.00" E
Runways
Designator Length Width Surface ROPS
6/24 3200 m10,498.688 ft <br /> 45 m147.638 ft <br /> CON yes/yes


METAR
Observation ZYCC 060000Z 25003MPS 220V310 6000 BKN020 23/19 Q1003 NOSIG
Station Changchun
Date/Time 06 August 2021 00:00:00
Wind direction 250°
Wind speed kts
Lowest cloud amount broken clouds
Temperature 23°C
Dew point 19°C
Humidity 78%
QNH 1003 hPa
Weather condition n/a

Changchun Longjia International Airport is an airport in Jilin Province, People's Republic of China (IATA: CGQ), for which it is an aviation hub. The airport is 31.2 km16.847 nm <br />31,200 m <br />102,362.205 ft <br /> north-east of Changchun and 76 km41.037 nm <br />76,000 m <br />249,343.832 ft <br /> north-west of Jilin City.